首页
METAR-TAF:

METAR-TAF

机场 :

克拉科夫, 波兰

纬度: 50-05N, 经度: 019-48E, 海拔: 237米

当前天气观测

该预报发布于25分钟前的21:00 UTC
风速2节,风向多变
温度 16°C
湿度 77%
气压 1007 hPa
能见度10公里或以上
1500米以下无云,无积雨云

METAR: EPKK 062100Z VRB02KT CAVOK 16/12 Q1007

时间: 23:25 (21:25 UTC)

预报

该预报发布于55分钟前的20:30 UTC
预报有效从06日的 21点(UTC)到 07日的 21点(UTC)
风速2节,风向多变
能见度10公里或以上
1500米以下无云,无积雨云
几率 30% :
短暂存在
从 07日的 01点(UTC)到 07日的 04点(UTC)
能見度: 3000
轻雾
短暂存在
从 07日的 08点(UTC)到 07日的 10点(UTC)
散云层高于5000英尺, 塔状积云.
短暂存在
从 07日的 10点(UTC)到 07日的 19点(UTC)
风速15节,风向多变,有时为30节阵风
能見度: 4000
散云层高于2300英尺
多云层高于4000英尺, 积雨云.
雷暴, 雨
几率 30% :
短暂存在
从 07日的 11点(UTC)到 07日的 17点(UTC)
风速25节,风向多变,有时为40节阵风
能見度: 1200
多云层高于1300英尺
多云层高于2300英尺, 积雨云.
雷暴, 大雨, 冰雹
短暂存在
从 07日的 19点(UTC)到 07日的 21点(UTC)
散云层高于2300英尺
多云层高于4000英尺, 积雨云.
小阵雨

TAF: EPKK 062030Z 0621/0721 VRB02KT CAVOK PROB30 TEMPO 0701/0704 3000 BR TEMPO 0708/0710 SCT050TCU TEMPO 0710/0719 VRB15G30KT 4000 TSRA SCT023 BKN040CB PROB30 TEMPO 0711/0717 VRB25G40KT 1200 +TSRAGR BKN013 BKN023CB TEMPO 0719/0721 -SHRA SCT023 BKN040CB

超过4000个机场的气象观测和天气预报(METAR&TAF报告)。

可查询的气象台以黄色和红色小点在地图上表示。

将鼠标移到小点上方,可查看气象台名称。

然后点击查看天气观测和预报。

如需切换地图:点击带黑十字的绿色按钮放大地图;点击带横线的绿色按钮缩小地图;或者点击绿色箭头查看邻近地区的地图。


METAR-TAF: